createdAt,value
2022-08-03T00:01:50.323Z,100917.13
2022-08-03T00:04:17.105Z,100926.94
2022-08-03T00:06:43.993Z,100917.72
2022-08-03T00:09:10.909Z,100921.06
2022-08-03T00:11:37.627Z,100918.00
2022-08-03T00:14:05.601Z,100919.94
2022-08-03T00:16:32.274Z,100922.19
2022-08-03T00:18:58.737Z,100911.84
2022-08-03T00:21:27.497Z,100904.84
2022-08-03T00:23:53.968Z,100914.34
2022-08-03T00:26:21.910Z,100914.94
2022-08-03T00:28:49.151Z,100911.00
2022-08-03T00:31:15.760Z,100919.66
2022-08-03T00:33:58.008Z,100915.47
2022-08-03T00:36:29.182Z,100915.50
2022-08-03T00:38:56.293Z,100914.38
2022-08-03T00:41:22.822Z,100918.84
2022-08-03T00:43:49.261Z,100911.28
2022-08-03T00:46:20.827Z,100916.00
2022-08-03T00:48:51.152Z,100917.41
2022-08-03T00:51:19.875Z,100909.88
2022-08-03T00:53:46.398Z,100917.09
2022-08-03T00:56:15.048Z,100914.84
2022-08-03T00:58:43.332Z,100915.69
2022-08-03T01:01:10.036Z,100907.00
2022-08-03T01:03:36.538Z,100907.56
2022-08-03T01:06:19.150Z,100911.47
2022-08-03T01:08:58.894Z,100909.78
2022-08-03T01:12:00.278Z,100910.34
2022-08-03T01:14:36.181Z,100903.59
2022-08-03T01:17:14.828Z,100902.22
2022-08-03T01:19:44.787Z,100904.75
2022-08-03T01:22:29.721Z,100902.22
2022-08-03T01:24:56.152Z,100901.41
2022-08-03T01:27:29.242Z,100897.47
2022-08-03T01:30:08.025Z,100902.22
2022-08-03T01:32:59.468Z,100900.81
2022-08-03T01:35:45.436Z,100892.97
2022-08-03T01:38:15.606Z,100895.50
2022-08-03T01:40:44.395Z,100901.91
2022-08-03T01:43:15.211Z,100892.97
2022-08-03T01:46:03.165Z,100896.34
2022-08-03T01:48:31.728Z,100898.56
2022-08-03T01:51:00.083Z,100897.41
2022-08-03T01:53:27.887Z,100898.50
2022-08-03T01:55:56.027Z,100893.47
2022-08-03T01:58:25.122Z,100891.78
2022-08-03T02:00:53.062Z,100901.22
2022-08-03T02:03:22.209Z,100896.75
2022-08-03T02:05:54.125Z,100891.13
2022-08-03T02:08:34.015Z,100890.00
2022-08-03T02:11:02.211Z,100891.97
2022-08-03T02:13:29.543Z,100889.44
2022-08-03T02:15:58.027Z,100885.78
2022-08-03T02:18:26.317Z,100886.94
2022-08-03T02:20:52.739Z,100887.75
2022-08-03T02:23:19.412Z,100891.66
2022-08-03T02:25:50.980Z,100889.13
2022-08-03T02:28:21.056Z,100888.25
2022-08-03T02:30:55.923Z,100892.19
2022-08-03T02:33:30.617Z,100894.38
2022-08-03T02:35:57.795Z,100894.94
2022-08-03T02:38:31.143Z,100888.50
2022-08-03T02:40:58.787Z,100888.22
2022-08-03T02:43:26.443Z,100892.66
2022-08-03T02:45:54.287Z,100889.56
2022-08-03T02:48:24.865Z,100886.47
2022-08-03T02:50:53.988Z,100889.81
2022-08-03T02:53:22.349Z,100886.97
2022-08-03T02:55:50.090Z,100891.41
2022-08-03T02:58:21.206Z,100890.56
2022-08-03T03:00:49.003Z,100892.75
2022-08-03T03:03:15.665Z,100896.69
2022-08-03T03:05:53.174Z,100888.56
2022-08-03T03:08:25.958Z,100886.31
2022-08-03T03:10:55.607Z,100885.75
2022-08-03T03:13:22.944Z,100886.28
2022-08-03T03:15:50.777Z,100887.66
2022-08-03T03:18:22.089Z,100889.88
2022-08-03T03:20:50.404Z,100885.97
2022-08-03T03:23:17.821Z,100884.88
2022-08-03T03:25:45.036Z,100889.06
2022-08-03T03:28:11.720Z,100887.91
2022-08-03T03:30:38.562Z,100888.22
2022-08-03T03:33:05.231Z,100889.88
2022-08-03T03:35:38.789Z,100886.81
2022-08-03T03:38:06.439Z,100886.53
2022-08-03T03:40:34.943Z,100897.94
2022-08-03T03:43:01.660Z,100902.94
2022-08-03T03:45:28.809Z,100897.91
2022-08-03T03:47:55.377Z,100896.47
2022-08-03T03:50:22.661Z,100897.88
2022-08-03T03:52:49.130Z,100902.56
2022-08-03T03:55:17.792Z,100905.63
2022-08-03T03:57:44.739Z,100901.13
2022-08-03T04:00:13.346Z,100902.22
2022-08-03T04:02:39.960Z,100898.28
2022-08-03T04:05:25.594Z,100909.94
2022-08-03T04:08:18.051Z,100902.09
2022-08-03T04:11:07.136Z,100896.78
2022-08-03T04:13:37.629Z,100900.41
2022-08-03T04:16:06.474Z,100895.38
2022-08-03T04:18:35.263Z,100898.28
2022-08-03T04:21:03.880Z,100890.47
2022-08-03T04:23:33.814Z,100896.63
2022-08-03T04:26:02.751Z,100887.16
2022-08-03T04:28:32.437Z,100895.00
2022-08-03T04:31:04.319Z,100895.56
2022-08-03T04:33:34.894Z,100897.00
2022-08-03T04:36:06.246Z,100892.50
2022-08-03T04:38:36.815Z,100903.06
2022-08-03T04:41:04.610Z,100906.16
2022-08-03T04:43:33.442Z,100905.88
2022-08-03T04:46:01.445Z,100900.56
2022-08-03T04:48:29.034Z,100907.84
2022-08-03T04:50:55.665Z,100908.09
2022-08-03T04:53:22.420Z,100911.72
2022-08-03T04:55:49.951Z,100903.94
2022-08-03T04:58:16.382Z,100903.66
2022-08-03T05:00:43.184Z,100905.66
2022-08-03T05:03:19.418Z,100910.97
2022-08-03T05:06:09.831Z,100908.47
2022-08-03T05:08:46.377Z,100909.56
2022-08-03T05:11:17.485Z,100908.47
2022-08-03T05:13:45.283Z,100915.69
2022-08-03T05:16:12.164Z,100929.66
2022-08-03T05:18:38.630Z,100917.38
2022-08-03T05:21:05.099Z,100919.63
2022-08-03T05:23:31.746Z,100919.09
2022-08-03T05:25:58.330Z,100921.38
2022-08-03T05:28:24.835Z,100920.84
2022-08-03T05:30:51.249Z,100921.41
2022-08-03T05:33:17.670Z,100918.91
2022-08-03T05:36:02.485Z,100927.88
2022-08-03T05:38:34.034Z,100924.28
2022-08-03T05:41:22.766Z,100916.22
2022-08-03T05:43:47.322Z,100924.34
2022-08-03T05:46:13.864Z,100918.53
2022-08-03T05:48:41.517Z,100917.19
2022-08-03T05:51:11.522Z,100917.25
2022-08-03T05:53:42.455Z,100916.47
2022-08-03T05:56:14.412Z,100919.91
2022-08-03T05:58:48.365Z,100912.13
2022-08-03T06:01:16.843Z,100917.50
2022-08-03T06:03:43.873Z,100916.97
2022-08-03T06:06:11.411Z,100922.91
2022-08-03T06:08:38.205Z,100919.88
2022-08-03T06:11:04.854Z,100913.72
2022-08-03T06:13:31.326Z,100917.16
2022-08-03T06:15:58.001Z,100915.47
2022-08-03T06:18:24.666Z,100921.66
2022-08-03T06:20:52.344Z,100918.00
2022-08-03T06:23:19.618Z,100910.41
2022-08-03T06:25:46.702Z,100908.16
2022-08-03T06:28:51.217Z,100907.63
2022-08-03T06:31:06.613Z,100907.31
2022-08-03T06:34:30.721Z,100912.88
2022-08-03T06:36:20.365Z,100917.03
2022-08-03T06:38:46.833Z,100924.28
2022-08-03T06:41:13.370Z,100919.47
2022-08-03T06:44:02.982Z,100914.69
2022-08-03T06:46:26.282Z,100916.28
2022-08-03T06:48:53.150Z,100920.19
2022-08-03T06:51:19.703Z,100912.22
2022-08-03T06:53:46.189Z,100911.94
2022-08-03T06:56:12.659Z,100906.53
2022-08-03T06:58:39.121Z,100908.19
2022-08-03T07:01:05.697Z,100913.72
2022-08-03T07:03:32.234Z,100911.94
2022-08-03T07:05:59.525Z,100907.94
2022-08-03T07:08:33.647Z,100903.91
2022-08-03T07:11:00.966Z,100902.41
2022-08-03T07:13:27.490Z,100900.66
2022-08-03T07:15:55.989Z,100901.38
2022-08-03T07:18:24.642Z,100898.72
2022-08-03T07:20:56.343Z,100898.31
2022-08-03T07:23:22.761Z,100900.75
2022-08-03T07:25:49.231Z,100900.94
2022-08-03T07:28:15.664Z,100892.38
2022-08-03T07:30:42.088Z,100901.50
2022-08-03T07:33:08.513Z,100891.56
2022-08-03T07:35:35.089Z,100904.50
2022-08-03T07:38:01.568Z,100894.31
2022-08-03T07:40:31.624Z,100891.06
2022-08-03T07:42:58.346Z,100894.59
2022-08-03T07:45:26.453Z,100887.69
2022-08-03T07:47:54.363Z,100887.50
2022-08-03T07:50:21.862Z,100890.47
2022-08-03T07:52:52.791Z,100887.78
2022-08-03T07:55:21.600Z,100887.88
2022-08-03T07:57:58.881Z,100886.22
2022-08-03T08:00:25.313Z,100890.66
2022-08-03T08:02:51.733Z,100887.53
2022-08-03T08:05:18.235Z,100878.66
2022-08-03T08:07:44.676Z,100881.31
2022-08-03T08:10:18.047Z,100877.38
2022-08-03T08:12:44.540Z,100869.22
2022-08-03T08:15:10.997Z,100877.16
2022-08-03T08:17:49.403Z,100863.13
2022-08-03T08:20:28.104Z,100865.72
2022-08-03T08:23:01.072Z,100857.56
2022-08-03T08:25:29.478Z,100863.69
2022-08-03T08:28:25.303Z,100860.13
2022-08-03T08:30:42.578Z,100872.13
2022-08-03T08:33:22.160Z,100852.66
2022-08-03T08:35:50.486Z,100854.44
2022-08-03T08:38:16.888Z,100844.56
2022-08-03T08:40:43.485Z,100847.00
2022-08-03T08:43:09.926Z,100848.91
2022-08-03T08:45:37.512Z,100834.59
2022-08-03T08:48:08.325Z,100841.16
2022-08-03T08:50:38.029Z,100839.91
2022-08-03T08:53:09.883Z,100842.13
2022-08-03T08:55:58.003Z,100839.00
2022-08-03T08:58:30.235Z,100832.25
2022-08-03T09:00:57.180Z,100827.13
2022-08-03T09:03:29.613Z,100819.16
2022-08-03T09:05:58.972Z,100834.50
2022-08-03T09:08:25.980Z,100833.38
2022-08-03T09:10:52.480Z,100829.72
2022-08-03T09:13:19.372Z,100826.22
2022-08-03T09:15:57.136Z,100814.41
2022-08-03T09:18:32.580Z,100818.22
2022-08-03T09:21:34.421Z,100808.69
2022-08-03T09:24:05.131Z,100812.00
2022-08-03T09:26:34.777Z,100808.31
2022-08-03T09:29:11.211Z,100799.56
2022-08-03T09:31:44.719Z,100806.53
2022-08-03T09:34:16.850Z,100807.00
2022-08-03T09:36:48.092Z,100804.53
2022-08-03T09:39:18.332Z,100804.81
2022-08-03T09:42:03.732Z,100803.56
2022-08-03T09:44:50.697Z,100800.31
2022-08-03T09:47:37.461Z,100804.41
2022-08-03T09:50:12.816Z,100805.41
2022-08-03T09:52:52.348Z,100798.81
2022-08-03T09:56:34.643Z,100807.78
2022-08-03T09:58:09.370Z,100798.78
2022-08-03T10:00:52.327Z,100791.97
2022-08-03T10:03:18.815Z,100795.88
2022-08-03T10:05:45.330Z,100787.59
2022-08-03T10:08:16.410Z,100784.59
2022-08-03T10:10:44.785Z,100778.91
2022-08-03T10:13:13.821Z,100776.38
2022-08-03T10:16:22.287Z,100774.41
2022-08-03T10:18:27.576Z,100777.00
2022-08-03T10:20:58.952Z,100769.75
2022-08-03T10:23:25.588Z,100766.56
2022-08-03T10:25:57.974Z,100767.63
2022-08-03T10:28:25.011Z,100757.59
2022-08-03T10:30:53.451Z,100756.41
2022-08-03T10:33:51.350Z,100756.75
2022-08-03T10:36:19.001Z,100755.34
2022-08-03T10:38:52.539Z,100751.47
2022-08-03T10:41:21.472Z,100750.22
2022-08-03T10:43:56.662Z,100735.88
2022-08-03T10:46:23.189Z,100727.97
2022-08-03T10:48:52.430Z,100732.22
2022-08-03T10:51:20.610Z,100727.44
2022-08-03T10:53:55.478Z,100724.75
2022-08-03T10:56:53.439Z,100721.38
2022-08-03T10:59:46.588Z,100724.31
2022-08-03T11:02:14.956Z,100720.66
2022-08-03T11:04:44.746Z,100711.19
2022-08-03T11:07:24.959Z,100708.94
2022-08-03T11:09:53.777Z,100706.97
2022-08-03T11:12:42.030Z,100707.00
2022-08-03T11:15:08.931Z,100707.72
2022-08-03T11:17:46.846Z,100699.16
2022-08-03T11:20:45.773Z,100708.38
2022-08-03T11:23:12.747Z,100692.47
2022-08-03T11:26:10.780Z,100696.44
2022-08-03T11:28:39.070Z,100692.22
2022-08-03T11:31:48.864Z,100700.25
2022-08-03T11:34:13.562Z,100690.03
2022-08-03T11:37:17.558Z,100692.63
2022-08-03T11:39:46.937Z,100691.16
2022-08-03T11:42:22.800Z,100688.88
2022-08-03T11:44:54.163Z,100691.59
2022-08-03T11:47:22.304Z,100689.25
2022-08-03T11:49:50.454Z,100687.44
2022-08-03T11:52:18.394Z,100689.53
2022-08-03T11:54:45.625Z,100683.50
2022-08-03T11:57:12.327Z,100681.19
2022-08-03T11:59:39.006Z,100679.72
2022-08-03T12:02:14.610Z,100679.44
2022-08-03T12:05:02.778Z,100675.81
2022-08-03T12:08:02.430Z,100675.09
2022-08-03T12:10:16.764Z,100672.84
2022-08-03T12:12:46.353Z,100666.97
2022-08-03T12:15:13.094Z,100662.72
2022-08-03T12:17:41.272Z,100668.63
2022-08-03T12:20:10.261Z,100655.31
2022-08-03T12:22:39.201Z,100654.22
2022-08-03T12:25:07.202Z,100658.53
2022-08-03T12:27:33.788Z,100655.94
2022-08-03T12:30:01.708Z,100655.22
2022-08-03T12:32:29.815Z,100660.66
2022-08-03T12:35:00.708Z,100663.09
2022-08-03T12:37:27.796Z,100646.34
2022-08-03T12:40:02.511Z,100651.44
2022-08-03T12:42:37.921Z,100653.16
2022-08-03T12:45:24.605Z,100649.88
2022-08-03T12:47:57.161Z,100643.28
2022-08-03T12:50:34.088Z,100634.72
2022-08-03T12:53:03.105Z,100645.84
2022-08-03T12:55:57.300Z,100643.78
2022-08-03T12:58:34.548Z,100654.66
2022-08-03T13:01:04.754Z,100643.38
2022-08-03T13:03:42.953Z,100640.34
2022-08-03T13:06:26.481Z,100642.38
2022-08-03T13:09:07.324Z,100635.66
2022-08-03T13:11:55.966Z,100630.53
2022-08-03T13:14:21.013Z,100633.56
2022-08-03T13:16:49.136Z,100618.50
2022-08-03T13:19:16.147Z,100621.88
2022-08-03T13:22:01.410Z,100609.53
2022-08-03T13:24:31.470Z,100623.09
2022-08-03T13:26:58.317Z,100625.53
2022-08-03T13:29:24.744Z,100625.47
2022-08-03T13:31:51.605Z,100618.75
2022-08-03T13:34:23.074Z,100614.69
2022-08-03T13:39:57.226Z,100618.75
2022-08-03T13:42:25.517Z,100611.88
2022-08-03T13:44:52.058Z,100601.59
2022-08-03T13:47:19.354Z,100584.34
2022-08-03T13:50:00.515Z,100594.22
2022-08-03T13:52:29.651Z,100590.91
2022-08-03T13:54:56.049Z,100585.09
2022-08-03T13:58:02.399Z,100598.16
2022-08-03T14:00:09.800Z,100585.28
2022-08-03T14:02:37.285Z,100587.66
2022-08-03T14:05:03.939Z,100592.16
2022-08-03T14:07:30.372Z,100591.41
2022-08-03T14:09:56.987Z,100582.91
2022-08-03T14:12:23.418Z,100580.22
2022-08-03T14:14:49.883Z,100572.91
2022-08-03T14:17:16.676Z,100561.78
2022-08-03T14:19:53.311Z,100563.84
2022-08-03T14:22:20.934Z,100560.56
2022-08-03T14:24:47.451Z,100563.78
2022-08-03T14:27:13.983Z,100558.38
2022-08-03T14:29:40.386Z,100560.78
2022-08-03T14:32:10.921Z,100551.78
2022-08-03T14:34:39.398Z,100548.91
2022-08-03T14:37:06.244Z,100538.56
2022-08-03T14:42:20.418Z,100541.97
2022-08-03T14:44:47.364Z,100539.41
2022-08-03T14:47:14.055Z,100537.28
2022-08-03T14:50:38.080Z,100542.16
2022-08-03T14:52:26.967Z,100541.19
2022-08-03T14:54:53.395Z,100533.53
2022-08-03T14:57:19.915Z,100527.03
2022-08-03T14:59:55.550Z,100525.94
2022-08-03T15:02:24.910Z,100523.38
2022-08-03T15:04:52.334Z,100526.19
2022-08-03T15:07:19.246Z,100528.06
2022-08-03T15:09:46.242Z,100515.69
2022-08-03T15:12:12.822Z,100524.44
2022-08-03T15:14:39.283Z,100526.63
2022-08-03T15:17:06.792Z,100519.28
2022-08-03T15:20:03.517Z,100510.59
2022-08-03T15:22:20.501Z,100513.50
2022-08-03T15:24:51.294Z,100506.75
2022-08-03T15:27:17.989Z,100513.50
2022-08-03T15:30:07.595Z,100515.88
2022-08-03T15:32:30.908Z,100505.63
2022-08-03T15:35:00.540Z,100501.50
2022-08-03T15:37:27.920Z,100497.47
2022-08-03T15:39:58.812Z,100493.06
2022-08-03T15:42:28.223Z,100485.22
2022-08-03T15:44:54.859Z,100492.56
2022-08-03T15:47:21.674Z,100483.47
2022-08-03T15:49:48.411Z,100479.69
2022-08-03T15:52:14.809Z,100482.13
2022-08-03T15:54:41.418Z,100477.44
2022-08-03T15:57:07.859Z,100476.03
2022-08-03T15:59:34.411Z,100481.25
2022-08-03T16:02:00.959Z,100475.91
2022-08-03T16:04:27.462Z,100472.47
2022-08-03T16:06:53.921Z,100470.03
2022-08-03T16:09:22.856Z,100467.91
2022-08-03T16:11:49.732Z,100457.16
2022-08-03T16:14:32.481Z,100457.88
2022-08-03T16:17:02.309Z,100457.81
2022-08-03T16:19:28.748Z,100458.41
2022-08-03T16:21:55.170Z,100458.72
2022-08-03T16:24:28.083Z,100453.81
2022-08-03T16:26:55.281Z,100452.47
2022-08-03T16:29:23.217Z,100451.75
2022-08-03T16:31:51.254Z,100451.22
2022-08-03T16:34:18.166Z,100444.94
2022-08-03T16:36:45.629Z,100446.66
2022-08-03T16:39:12.143Z,100448.59
2022-08-03T16:41:54.119Z,100454.66
2022-08-03T16:44:25.539Z,100454.81
2022-08-03T16:46:53.485Z,100451.59
2022-08-03T16:49:54.219Z,100457.41
2022-08-03T16:52:07.119Z,100465.16
2022-08-03T16:54:33.697Z,100453.75
2022-08-03T16:57:01.257Z,100457.44
2022-08-03T16:59:36.570Z,100462.75
2022-08-03T17:02:09.918Z,100463.78
2022-08-03T17:04:36.540Z,100453.34
2022-08-03T17:07:07.678Z,100462.53
2022-08-03T17:09:49.131Z,100461.00
2022-08-03T17:12:15.992Z,100470.94
2022-08-03T17:14:43.104Z,100470.50
2022-08-03T17:17:16.965Z,100465.16
2022-08-03T17:19:47.491Z,100465.50
2022-08-03T17:22:17.633Z,100465.38
2022-08-03T17:24:50.874Z,100463.28
2022-08-03T17:28:48.618Z,100471.34
2022-08-03T17:30:11.823Z,100474.50
2022-08-03T17:32:42.687Z,100469.50
2022-08-03T17:35:10.036Z,100470.19
2022-08-03T17:37:58.539Z,100465.97
2022-08-03T17:40:23.716Z,100464.09
2022-08-03T17:42:50.907Z,100468.84
2022-08-03T17:45:17.821Z,100472.78
2022-08-03T17:47:45.452Z,100466.03
2022-08-03T17:50:28.759Z,100471.13
2022-08-03T17:53:07.084Z,100477.53
2022-08-03T17:55:55.980Z,100474.47
2022-08-03T17:58:55.174Z,100488.97
2022-08-03T18:02:00.127Z,100475.72
2022-08-03T18:04:37.991Z,100480.69
2022-08-03T18:07:11.702Z,100484.91
2022-08-03T18:10:04.239Z,100482.66
2022-08-03T18:12:40.505Z,100481.81
2022-08-03T18:15:10.020Z,100486.91
2022-08-03T18:17:55.001Z,100482.97
2022-08-03T18:20:32.936Z,100491.28
2022-08-03T18:23:05.438Z,100485.25
2022-08-03T18:25:45.310Z,100498.47
2022-08-03T18:28:18.913Z,100494.22
2022-08-03T18:30:53.492Z,100495.72
2022-08-03T18:34:19.465Z,100493.03
2022-08-03T18:36:21.815Z,100505.56
2022-08-03T18:38:58.388Z,100506.75
2022-08-03T18:41:32.619Z,100499.78
2022-08-03T18:44:08.995Z,100496.50
2022-08-03T18:47:15.958Z,100494.75
2022-08-03T18:50:01.740Z,100499.06
2022-08-03T18:52:40.178Z,100502.97
2022-08-03T18:55:20.315Z,100501.19
2022-08-03T18:58:06.576Z,100505.97
2022-08-03T19:00:54.020Z,100506.66
2022-08-03T19:03:23.886Z,100506.63
2022-08-03T19:06:02.494Z,100516.66
2022-08-03T19:08:44.184Z,100515.78
2022-08-03T19:11:21.591Z,100516.94
2022-08-03T19:13:56.632Z,100520.16
2022-08-03T19:16:47.225Z,100525.94
2022-08-03T19:19:18.062Z,100535.78
2022-08-03T19:21:44.840Z,100537.41
2022-08-03T19:24:13.538Z,100548.53
2022-08-03T19:26:41.298Z,100551.97
2022-08-03T19:29:15.129Z,100551.72
2022-08-03T19:31:58.655Z,100548.47
2022-08-03T19:34:29.008Z,100549.72
2022-08-03T19:36:58.115Z,100553.00
2022-08-03T19:39:25.439Z,100548.13
2022-08-03T19:41:55.256Z,100543.59
2022-08-03T19:44:29.916Z,100554.03
2022-08-03T19:47:08.420Z,100556.63
2022-08-03T19:50:05.764Z,100567.91
2022-08-03T19:52:31.350Z,100557.66
2022-08-03T19:55:00.366Z,100571.06
2022-08-03T19:57:28.812Z,100574.78
2022-08-03T19:59:56.933Z,100571.13
2022-08-03T20:02:27.290Z,100570.38
2022-08-03T20:04:57.840Z,100576.91
2022-08-03T20:07:28.737Z,100572.09
2022-08-03T20:09:56.416Z,100577.94
2022-08-03T20:12:27.639Z,100572.13
2022-08-03T20:14:56.975Z,100576.00
2022-08-03T20:17:55.552Z,100572.34
2022-08-03T20:20:10.361Z,100566.53
2022-08-03T20:22:43.046Z,100573.88
2022-08-03T20:25:13.110Z,100560.94
2022-08-03T20:28:07.992Z,100565.75
2022-08-03T20:30:37.736Z,100572.94
2022-08-03T20:33:04.549Z,100561.31
2022-08-03T20:35:32.449Z,100568.78
2022-08-03T20:37:59.245Z,100570.16
2022-08-03T20:40:27.364Z,100572.94
2022-08-03T20:42:55.266Z,100578.44
2022-08-03T20:45:59.883Z,100578.94
2022-08-03T20:48:09.915Z,100577.78
2022-08-03T20:50:38.362Z,100571.47
2022-08-03T20:53:06.926Z,100580.41
2022-08-03T20:55:47.918Z,100577.25
2022-08-03T20:58:23.809Z,100580.41
2022-08-03T21:00:51.452Z,100581.84
2022-08-03T21:03:18.839Z,100579.84
2022-08-03T21:05:51.345Z,100573.84
2022-08-03T21:08:22.439Z,100576.84
2022-08-03T21:10:50.083Z,100576.13
2022-08-03T21:13:29.061Z,100578.28
2022-08-03T21:16:01.184Z,100583.91
2022-08-03T21:18:50.712Z,100576.75
2022-08-03T21:21:21.479Z,100585.34
2022-08-03T21:23:53.327Z,100577.03
2022-08-03T21:26:24.796Z,100586.59
2022-08-03T21:28:53.175Z,100577.75
2022-08-03T21:31:25.090Z,100577.38
2022-08-03T21:33:54.448Z,100579.50
2022-08-03T21:36:20.997Z,100574.31
2022-08-03T21:38:56.133Z,100578.09
2022-08-03T21:41:23.620Z,100575.25
2022-08-03T21:43:50.135Z,100582.31
2022-08-03T21:46:18.946Z,100583.09
2022-08-03T21:48:48.286Z,100581.50
2022-08-03T21:51:18.427Z,100579.47
2022-08-03T21:54:03.355Z,100577.72
2022-08-03T21:56:51.502Z,100574.00
2022-08-03T21:59:20.009Z,100579.25
2022-08-03T22:01:55.209Z,100569.75
2022-08-03T22:04:53.305Z,100583.97
2022-08-03T22:07:09.277Z,100582.63
2022-08-03T22:09:36.364Z,100583.22
2022-08-03T22:12:03.667Z,100576.78
2022-08-03T22:14:32.699Z,100577.59
2022-08-03T22:17:00.049Z,100586.88
2022-08-03T22:19:26.435Z,100579.28
2022-08-03T22:21:54.356Z,100582.09
2022-08-03T22:24:24.009Z,100581.59
2022-08-03T22:27:09.750Z,100579.72
2022-08-03T22:29:36.800Z,100579.63
2022-08-03T22:32:03.715Z,100587.34
2022-08-03T22:34:30.337Z,100582.94
2022-08-03T22:37:01.492Z,100591.19
2022-08-03T22:39:29.357Z,100591.63
2022-08-03T22:41:59.119Z,100585.78
2022-08-03T22:44:29.432Z,100584.75
2022-08-03T22:46:56.525Z,100591.66
2022-08-03T22:49:23.704Z,100592.06
2022-08-03T22:51:51.922Z,100594.78
2022-08-03T22:54:18.706Z,100594.34
2022-08-03T22:56:46.695Z,100591.13
2022-08-03T22:59:38.970Z,100589.88
2022-08-03T23:02:15.129Z,100591.38
2022-08-03T23:04:54.956Z,100587.00
2022-08-03T23:07:37.163Z,100585.13
2022-08-03T23:10:14.939Z,100588.56
2022-08-03T23:12:43.159Z,100588.34
2022-08-03T23:15:12.485Z,100589.47
2022-08-03T23:17:57.401Z,100589.47
2022-08-03T23:20:26.849Z,100593.75
2022-08-03T23:22:55.741Z,100592.91
2022-08-03T23:25:22.609Z,100593.75
2022-08-03T23:28:04.526Z,100599.66
2022-08-03T23:30:34.537Z,100594.66
2022-08-03T23:33:02.872Z,100598.09
2022-08-03T23:36:28.726Z,100602.13
2022-08-03T23:38:36.054Z,100595.84
2022-08-03T23:41:04.406Z,100603.00
2022-08-03T23:43:51.011Z,100600.59
2022-08-03T23:46:20.083Z,100608.00
2022-08-03T23:48:46.532Z,100598.84
2022-08-03T23:51:23.554Z,100598.63
2022-08-03T23:54:02.037Z,100600.13
2022-08-03T23:56:52.144Z,100601.03
2022-08-03T23:59:27.717Z,100600.31
